Weather at Portland International Airport

Public forecast

Using degrees Fahrenheit for public forecast. Weather courtesy of forecast.io.

Current aviation weather report (METAR) for Portland International Airport

Retrieved 2021/04/11 08:53 UTC (28 minutes ago):

KPDX 110853Z 34005KT 10SM CLR 04/M01 A3036 RMK AO2 SLP280 T00441011 51002

Aviation forecast (TAF) for Portland International Airport

Retrieved 2021/04/11 06:22 UTC (3 hours ago):

TAF KPDX 110520Z 1106/1206 33005KT P6SM FEW200 FM112200 34009KT P6SM SKC